createdAt,value
2019-06-08T00:00:44.480Z,19.90
2019-06-08T00:01:50.440Z,19.90
2019-06-08T00:02:55.569Z,19.90
2019-06-08T00:04:01.573Z,19.90
2019-06-08T00:05:07.073Z,19.90
2019-06-08T00:06:12.914Z,19.90
2019-06-08T00:07:18.895Z,19.90
2019-06-08T00:08:24.922Z,19.90
2019-06-08T00:09:30.381Z,19.90
2019-06-08T00:10:36.369Z,19.90
2019-06-08T00:11:41.825Z,19.80
2019-06-08T00:12:47.792Z,19.90
2019-06-08T00:13:53.271Z,19.80
2019-06-08T00:14:59.488Z,19.80
2019-06-08T00:16:05.176Z,19.80
2019-06-08T00:17:26.469Z,19.90
2019-06-08T00:18:19.205Z,19.80
2019-06-08T00:19:25.780Z,19.80
2019-06-08T00:20:31.389Z,19.80
2019-06-08T00:21:37.661Z,19.80
2019-06-08T00:22:42.917Z,19.80
2019-06-08T00:23:48.902Z,19.80
2019-06-08T00:24:54.064Z,19.80
2019-06-08T00:26:00.079Z,19.80
2019-06-08T00:27:05.604Z,19.80
2019-06-08T00:28:12.227Z,19.80
2019-06-08T00:29:18.419Z,19.70
2019-06-08T00:30:24.412Z,19.80
2019-06-08T00:31:30.286Z,19.80
2019-06-08T00:32:36.719Z,19.70
2019-06-08T00:33:42.198Z,19.70
2019-06-08T00:34:50.871Z,19.70
2019-06-08T00:35:56.761Z,19.70
2019-06-08T00:37:02.982Z,19.70
2019-06-08T00:38:08.362Z,19.70
2019-06-08T00:39:14.750Z,19.70
2019-06-08T00:40:21.091Z,19.70
2019-06-08T00:41:27.473Z,19.70
2019-06-08T00:42:32.978Z,19.70
2019-06-08T00:43:39.023Z,19.70
2019-06-08T00:44:44.729Z,19.60
2019-06-08T00:45:50.723Z,19.60
2019-06-08T00:46:55.896Z,19.60
2019-06-08T00:48:02.235Z,19.60
2019-06-08T00:49:08.431Z,19.60
2019-06-08T00:50:15.143Z,19.60
2019-06-08T00:51:21.025Z,19.60
2019-06-08T00:52:27.397Z,19.60
2019-06-08T00:53:32.858Z,19.60
2019-06-08T00:54:38.864Z,19.60
2019-06-08T00:55:44.870Z,19.50
2019-06-08T00:56:51.216Z,19.50
2019-06-08T00:57:56.432Z,19.50
2019-06-08T00:59:02.723Z,19.50
2019-06-08T01:00:11.605Z,19.50
2019-06-08T01:01:23.329Z,19.50
2019-06-08T01:02:29.551Z,19.50
2019-06-08T01:03:40.454Z,19.50
2019-06-08T01:04:50.518Z,19.40
2019-06-08T01:05:57.720Z,19.50
2019-06-08T01:07:03.907Z,19.40
2019-06-08T01:08:15.079Z,19.40
2019-06-08T01:09:22.140Z,19.40
2019-06-08T01:10:29.646Z,19.40
2019-06-08T01:11:35.210Z,19.40
2019-06-08T01:12:41.172Z,19.30
2019-06-08T01:13:46.380Z,19.40
2019-06-08T01:14:52.400Z,19.30
2019-06-08T01:15:57.575Z,19.30
2019-06-08T01:17:03.587Z,19.30
2019-06-08T01:18:08.797Z,19.30
2019-06-08T01:19:14.784Z,19.30
2019-06-08T01:20:21.561Z,19.30
2019-06-08T01:21:27.843Z,19.30
2019-06-08T01:22:33.330Z,19.30
2019-06-08T01:23:39.343Z,19.30
2019-06-08T01:24:45.027Z,19.20
2019-06-08T01:25:51.340Z,19.20
2019-06-08T01:26:56.800Z,19.20
2019-06-08T01:28:03.099Z,19.20
2019-06-08T01:29:08.355Z,19.20
2019-06-08T01:30:15.051Z,19.20
2019-06-08T01:31:20.524Z,19.10
2019-06-08T01:32:26.861Z,19.10
2019-06-08T01:33:31.995Z,19.10
2019-06-08T01:34:38.351Z,19.10
2019-06-08T01:35:43.776Z,19.10
2019-06-08T01:36:49.803Z,19.10
2019-06-08T01:37:55.276Z,19.10
2019-06-08T01:39:01.584Z,19.10
2019-06-08T01:40:08.553Z,19.10
2019-06-08T01:41:14.548Z,19.10
2019-06-08T01:42:21.427Z,19.10
2019-06-08T01:43:27.765Z,19.10
2019-06-08T01:44:32.972Z,19.10
2019-06-08T01:45:39.003Z,19.00
2019-06-08T01:46:44.816Z,19.10
2019-06-08T01:47:51.055Z,19.10
2019-06-08T01:48:56.623Z,19.10
2019-06-08T01:50:02.946Z,19.00
2019-06-08T01:51:08.419Z,19.00
2019-06-08T01:52:15.062Z,19.00
2019-06-08T01:53:20.262Z,19.00
2019-06-08T01:54:26.907Z,19.00
2019-06-08T01:55:33.230Z,19.00
2019-06-08T01:56:39.353Z,19.00
2019-06-08T01:57:44.429Z,19.00
2019-06-08T01:58:50.668Z,19.00
2019-06-08T01:59:55.917Z,19.00
2019-06-08T02:01:02.918Z,18.90
2019-06-08T02:02:08.651Z,19.00
2019-06-08T02:03:14.644Z,19.00
2019-06-08T02:04:19.889Z,19.00
2019-06-08T02:05:26.219Z,18.90
2019-06-08T02:06:32.474Z,19.00
2019-06-08T02:07:38.580Z,18.90
2019-06-08T02:08:43.769Z,18.90
2019-06-08T02:09:49.765Z,18.90
2019-06-08T02:10:55.380Z,18.90
2019-06-08T02:12:01.350Z,18.80
2019-06-08T02:13:08.790Z,18.80
2019-06-08T02:14:14.244Z,18.80
2019-06-08T02:15:20.483Z,18.80
2019-06-08T02:16:27.392Z,18.80
2019-06-08T02:17:33.495Z,18.80
2019-06-08T02:18:50.202Z,18.80
2019-06-08T02:19:46.465Z,18.70
2019-06-08T02:20:52.731Z,18.70
2019-06-08T02:21:58.224Z,18.70
2019-06-08T02:23:04.207Z,18.70
2019-06-08T02:24:09.442Z,18.70
2019-06-08T02:25:17.664Z,18.70
2019-06-08T02:26:22.865Z,18.70
2019-06-08T02:27:29.267Z,18.70
2019-06-08T02:28:35.900Z,18.70
2019-06-08T02:29:42.356Z,18.70
2019-06-08T02:30:47.596Z,18.70
2019-06-08T02:31:53.590Z,18.60
2019-06-08T02:32:59.251Z,18.60
2019-06-08T02:34:05.283Z,18.70
2019-06-08T02:35:10.500Z,18.60
2019-06-08T02:36:16.499Z,18.70
2019-06-08T02:37:21.650Z,18.60
2019-06-08T02:38:29.794Z,18.60
2019-06-08T02:39:35.547Z,18.60
2019-06-08T02:40:42.967Z,18.60
2019-06-08T02:41:48.482Z,18.60
2019-06-08T02:42:54.489Z,18.60
2019-06-08T02:44:00.124Z,18.50
2019-06-08T02:45:07.545Z,18.60
2019-06-08T02:46:12.835Z,18.50
2019-06-08T02:47:18.831Z,18.50
2019-06-08T02:48:24.816Z,18.50
2019-06-08T02:49:31.147Z,18.50
2019-06-08T02:50:54.002Z,18.50
2019-06-08T02:52:00.897Z,18.50
2019-06-08T02:53:06.902Z,18.50
2019-06-08T02:54:14.268Z,18.40
2019-06-08T02:55:19.555Z,18.40
2019-06-08T02:56:29.888Z,18.40
2019-06-08T02:57:39.237Z,18.40
2019-06-08T02:58:46.157Z,18.40
2019-06-08T02:59:55.120Z,18.40
2019-06-08T03:01:01.606Z,18.40
2019-06-08T03:02:08.049Z,18.40
2019-06-08T03:03:15.458Z,18.40
2019-06-08T03:04:23.936Z,18.40
2019-06-08T03:05:31.929Z,18.40
2019-06-08T03:06:41.446Z,18.40
2019-06-08T03:07:51.196Z,18.40
2019-06-08T03:08:58.604Z,18.40
2019-06-08T03:10:06.551Z,18.40
2019-06-08T03:11:12.303Z,18.40
2019-06-08T03:12:21.410Z,18.40
2019-06-08T03:13:26.641Z,18.40
2019-06-08T03:14:35.515Z,18.40
2019-06-08T03:15:43.511Z,18.40
2019-06-08T03:16:49.363Z,18.40
2019-06-08T03:17:54.486Z,18.40
2019-06-08T03:19:19.966Z,18.40
2019-06-08T03:20:08.415Z,18.40
2019-06-08T03:21:14.590Z,18.40
2019-06-08T03:22:19.848Z,18.40
2019-06-08T03:23:26.193Z,18.40
2019-06-08T03:24:32.498Z,18.50
2019-06-08T03:25:47.283Z,18.40
2019-06-08T03:26:47.033Z,18.50
2019-06-08T03:27:53.058Z,18.50
2019-06-08T03:28:58.584Z,18.50
2019-06-08T03:30:16.621Z,18.50
2019-06-08T03:31:11.642Z,18.50
2019-06-08T03:32:17.560Z,18.50
2019-06-08T03:33:23.040Z,18.50
2019-06-08T03:34:29.201Z,18.50
2019-06-08T03:35:38.829Z,18.50
2019-06-08T03:36:53.596Z,18.50
2019-06-08T03:37:49.282Z,18.50
2019-06-08T03:38:55.317Z,18.50
2019-06-08T03:40:00.632Z,18.50
2019-06-08T03:41:06.616Z,18.50
2019-06-08T03:42:12.128Z,18.40
2019-06-08T03:43:19.215Z,18.40
2019-06-08T03:44:24.901Z,18.40
2019-06-08T03:45:31.354Z,18.40
2019-06-08T03:46:36.635Z,18.40
2019-06-08T03:47:43.967Z,18.40
2019-06-08T03:48:50.252Z,18.40
2019-06-08T03:49:57.522Z,18.40
2019-06-08T03:51:03.098Z,18.40
2019-06-08T03:52:09.060Z,18.40
2019-06-08T03:53:14.596Z,18.40
2019-06-08T03:54:20.608Z,18.40
2019-06-08T03:55:26.055Z,18.40
2019-06-08T03:56:31.994Z,18.40
2019-06-08T03:57:38.208Z,18.40
2019-06-08T03:58:47.645Z,18.40
2019-06-08T03:59:51.965Z,18.40
2019-06-08T04:00:57.946Z,18.40
2019-06-08T04:02:03.318Z,18.40
2019-06-08T04:03:09.850Z,18.40
2019-06-08T04:04:15.699Z,18.40
2019-06-08T04:05:22.064Z,18.40
2019-06-08T04:06:27.550Z,18.40
2019-06-08T04:07:33.711Z,18.40
2019-06-08T04:08:40.897Z,18.40
2019-06-08T04:09:46.820Z,18.40
2019-06-08T04:10:52.212Z,18.40
2019-06-08T04:11:58.539Z,18.40
2019-06-08T04:13:04.340Z,18.40
2019-06-08T04:14:10.581Z,18.40
2019-06-08T04:15:16.111Z,18.40
2019-06-08T04:16:23.085Z,18.30
2019-06-08T04:17:28.567Z,18.40
2019-06-08T04:18:34.831Z,18.40
2019-06-08T04:19:39.983Z,18.40
2019-06-08T04:20:48.556Z,18.40
2019-06-08T04:21:53.361Z,18.40
2019-06-08T04:22:59.172Z,18.30
2019-06-08T04:24:04.419Z,18.40
2019-06-08T04:25:10.757Z,18.40
2019-06-08T04:26:15.956Z,18.40
2019-06-08T04:27:21.789Z,18.40
2019-06-08T04:28:27.713Z,18.40
2019-06-08T04:29:34.014Z,18.30
2019-06-08T04:30:40.938Z,18.30
2019-06-08T04:31:47.392Z,18.30
2019-06-08T04:32:52.821Z,18.30
2019-06-08T04:33:59.812Z,18.30
2019-06-08T04:35:05.169Z,18.30
2019-06-08T04:36:11.169Z,18.30
2019-06-08T04:37:16.756Z,18.30
2019-06-08T04:38:22.929Z,18.30
2019-06-08T04:39:28.142Z,18.30
2019-06-08T04:40:34.113Z,18.30
2019-06-08T04:41:40.798Z,18.30
2019-06-08T04:42:49.404Z,18.30
2019-06-08T04:43:54.991Z,18.30
2019-06-08T04:45:01.209Z,18.30
2019-06-08T04:46:06.449Z,18.30
2019-06-08T04:47:12.472Z,18.30
2019-06-08T04:48:18.197Z,18.20
2019-06-08T04:49:25.019Z,18.30
2019-06-08T04:50:30.234Z,18.20
2019-06-08T04:51:36.231Z,18.20
2019-06-08T04:52:42.600Z,18.20
2019-06-08T04:53:49.525Z,18.20
2019-06-08T04:54:55.146Z,18.20
2019-06-08T04:56:01.197Z,18.30
2019-06-08T04:57:06.630Z,18.20
2019-06-08T04:58:12.959Z,18.20
2019-06-08T04:59:18.168Z,18.20
2019-06-08T05:00:24.132Z,18.20
2019-06-08T05:01:29.304Z,18.20
2019-06-08T05:02:35.276Z,18.20
2019-06-08T05:03:41.699Z,18.20
2019-06-08T05:04:51.923Z,18.20
2019-06-08T05:05:57.197Z,18.20
2019-06-08T05:07:03.875Z,18.10
2019-06-08T05:08:09.343Z,18.10
2019-06-08T05:09:15.664Z,18.10
2019-06-08T05:10:20.875Z,18.10
2019-06-08T05:11:27.868Z,18.10
2019-06-08T05:12:33.565Z,18.10
2019-06-08T05:13:41.119Z,18.10
2019-06-08T05:14:47.253Z,18.10
2019-06-08T05:15:53.238Z,18.10
2019-06-08T05:16:58.460Z,18.10
2019-06-08T05:18:04.836Z,18.10
2019-06-08T05:19:10.608Z,18.10
2019-06-08T05:20:17.214Z,18.10
2019-06-08T05:21:22.655Z,18.10
2019-06-08T05:22:28.805Z,18.10
2019-06-08T05:23:33.967Z,18.10
2019-06-08T05:24:41.372Z,18.10
2019-06-08T05:25:47.306Z,18.10
2019-06-08T05:26:53.423Z,18.10
2019-06-08T05:27:58.667Z,18.10
2019-06-08T05:29:04.819Z,18.10
2019-06-08T05:30:10.448Z,18.10
2019-06-08T05:31:17.405Z,18.10
2019-06-08T05:32:22.830Z,18.10
2019-06-08T05:33:29.124Z,18.10
2019-06-08T05:34:35.004Z,18.10
2019-06-08T05:35:41.379Z,18.10
2019-06-08T05:36:47.529Z,18.10
2019-06-08T05:37:54.048Z,18.10
2019-06-08T05:39:00.146Z,18.10
2019-06-08T05:40:07.538Z,18.10
2019-06-08T05:41:13.071Z,18.10
2019-06-08T05:42:19.359Z,18.10
2019-06-08T05:43:24.749Z,18.10
2019-06-08T05:44:30.688Z,18.10
2019-06-08T05:45:35.902Z,18.10
2019-06-08T05:46:41.976Z,18.10
2019-06-08T05:47:47.963Z,18.10
2019-06-08T05:48:55.269Z,18.10
2019-06-08T05:50:00.708Z,18.10
2019-06-08T05:51:07.026Z,18.10
2019-06-08T05:52:12.612Z,18.10
2019-06-08T05:53:18.929Z,18.10
2019-06-08T05:54:24.161Z,18.10
2019-06-08T05:55:30.152Z,18.10
2019-06-08T05:56:35.361Z,18.20
2019-06-08T05:57:42.111Z,18.20
2019-06-08T05:58:48.118Z,18.10
2019-06-08T05:59:54.092Z,18.10
2019-06-08T06:00:59.728Z,18.20
2019-06-08T06:02:06.061Z,18.20
2019-06-08T06:03:11.449Z,18.20
2019-06-08T06:04:18.172Z,18.10
2019-06-08T06:05:23.394Z,18.20
2019-06-08T06:06:29.420Z,18.20
2019-06-08T06:07:34.651Z,18.20
2019-06-08T06:08:42.447Z,18.20
2019-06-08T06:09:48.849Z,18.20
2019-06-08T06:10:55.436Z,18.10
2019-06-08T06:12:00.976Z,18.20
2019-06-08T06:13:07.019Z,18.20
2019-06-08T06:14:12.264Z,18.20
2019-06-08T06:15:18.958Z,18.20
2019-06-08T06:16:24.619Z,18.10
2019-06-08T06:17:30.615Z,18.10
2019-06-08T06:18:35.968Z,18.10
2019-06-08T06:19:42.971Z,18.10
2019-06-08T06:20:49.425Z,18.20
2019-06-08T06:21:56.123Z,18.20
2019-06-08T06:23:01.614Z,18.20
2019-06-08T06:24:07.635Z,18.20
2019-06-08T06:25:13.172Z,18.20
2019-06-08T06:26:19.178Z,18.20
2019-06-08T06:27:24.653Z,18.20
2019-06-08T06:28:30.662Z,18.30
2019-06-08T06:29:36.168Z,18.30
2019-06-08T06:30:43.998Z,18.30
2019-06-08T06:31:49.789Z,18.30
2019-06-08T06:32:56.028Z,18.30
2019-06-08T06:34:01.201Z,18.40
2019-06-08T06:35:07.815Z,18.40
2019-06-08T06:36:13.380Z,18.40
2019-06-08T06:37:19.301Z,18.40
2019-06-08T06:38:24.758Z,18.40
2019-06-08T06:39:30.709Z,18.40
2019-06-08T06:40:35.939Z,18.40
2019-06-08T06:41:42.253Z,18.50
2019-06-08T06:42:48.044Z,18.40
2019-06-08T06:43:54.351Z,18.50
2019-06-08T06:45:00.152Z,18.50
2019-06-08T06:46:06.232Z,18.50
2019-06-08T06:47:11.505Z,18.50
2019-06-08T06:48:17.550Z,18.50
2019-06-08T06:49:23.197Z,18.50
2019-06-08T06:50:29.559Z,18.50
2019-06-08T06:51:34.757Z,18.60
2019-06-08T06:52:40.666Z,18.60
2019-06-08T06:53:46.559Z,18.60
2019-06-08T06:54:53.371Z,18.60
2019-06-08T06:55:59.168Z,18.60
2019-06-08T06:57:05.571Z,18.60
2019-06-08T06:58:10.744Z,18.60
2019-06-08T06:59:17.079Z,18.60
2019-06-08T07:00:32.234Z,18.60
2019-06-08T07:01:38.508Z,18.70
2019-06-08T07:02:45.595Z,18.70
2019-06-08T07:03:52.187Z,18.70
2019-06-08T07:04:57.791Z,18.70
2019-06-08T07:06:04.146Z,18.70
2019-06-08T07:07:09.709Z,18.70
2019-06-08T07:08:16.079Z,18.70
2019-06-08T07:09:22.147Z,18.70
2019-06-08T07:10:28.159Z,18.70
2019-06-08T07:11:33.974Z,18.70
2019-06-08T07:12:40.289Z,18.60
2019-06-08T07:13:46.564Z,18.60
2019-06-08T07:14:53.289Z,18.60
2019-06-08T07:15:58.642Z,18.60
2019-06-08T07:17:04.616Z,18.60
2019-06-08T07:18:09.834Z,18.60
2019-06-08T07:19:16.126Z,18.60
2019-06-08T07:20:21.587Z,18.60
2019-06-08T07:21:40.969Z,18.60
2019-06-08T07:22:34.541Z,18.60
2019-06-08T07:23:40.755Z,18.60
2019-06-08T07:24:46.799Z,18.60
2019-06-08T07:25:53.039Z,18.60
2019-06-08T07:26:58.794Z,18.60
2019-06-08T07:28:05.077Z,18.60
2019-06-08T07:29:10.713Z,18.60
2019-06-08T07:30:17.596Z,18.60
2019-06-08T07:31:23.055Z,18.60
2019-06-08T07:32:28.897Z,18.60
2019-06-08T07:33:34.047Z,18.60
2019-06-08T07:34:41.262Z,18.60
2019-06-08T07:35:48.407Z,18.60
2019-06-08T07:36:55.527Z,18.70
2019-06-08T07:38:01.512Z,18.60
2019-06-08T07:39:09.273Z,18.70
2019-06-08T07:40:14.610Z,18.70
2019-06-08T07:41:20.989Z,18.60
2019-06-08T07:42:26.829Z,18.60
2019-06-08T07:43:33.017Z,18.70
2019-06-08T07:44:38.437Z,18.60
2019-06-08T07:45:44.652Z,18.70
2019-06-08T07:46:51.329Z,18.70
2019-06-08T07:47:57.396Z,18.70
2019-06-08T07:49:02.730Z,18.60
2019-06-08T07:50:09.107Z,18.70
2019-06-08T07:51:14.313Z,18.70
2019-06-08T07:52:20.461Z,18.70
2019-06-08T07:53:26.197Z,18.70
2019-06-08T07:54:32.191Z,18.70
2019-06-08T07:55:38.959Z,18.70
2019-06-08T07:56:45.845Z,18.70
2019-06-08T07:57:52.163Z,18.60
2019-06-08T07:58:59.076Z,18.70
2019-06-08T08:00:09.489Z,18.60
2019-06-08T08:01:12.982Z,18.60
2019-06-08T08:02:18.076Z,18.60
2019-06-08T08:03:24.695Z,18.60
2019-06-08T08:04:30.391Z,18.60
2019-06-08T08:05:36.615Z,18.60
2019-06-08T08:06:41.862Z,18.60
2019-06-08T08:07:48.340Z,18.60
2019-06-08T08:08:54.807Z,18.60
2019-06-08T08:10:01.226Z,18.60
2019-06-08T08:11:06.666Z,18.60
2019-06-08T08:12:12.926Z,18.60
2019-06-08T08:13:18.541Z,18.60
2019-06-08T08:14:24.835Z,18.70
2019-06-08T08:15:29.867Z,18.70
2019-06-08T08:16:36.194Z,18.70
2019-06-08T08:17:41.375Z,18.70
2019-06-08T08:18:47.354Z,18.70
2019-06-08T08:19:53.104Z,18.70
2019-06-08T08:21:09.080Z,18.80
2019-06-08T08:22:22.024Z,18.80
2019-06-08T08:23:14.729Z,18.90
2019-06-08T08:24:20.338Z,18.80
2019-06-08T08:25:28.134Z,18.90
2019-06-08T08:26:34.651Z,18.90
2019-06-08T08:27:40.731Z,18.90
2019-06-08T08:28:48.635Z,18.90
2019-06-08T08:29:55.348Z,19.00
2019-06-08T08:31:01.913Z,19.00
2019-06-08T08:32:09.976Z,19.00
2019-06-08T08:33:18.183Z,19.10
2019-06-08T08:34:23.940Z,19.10
2019-06-08T08:35:29.244Z,19.10
2019-06-08T08:36:37.939Z,19.10
2019-06-08T08:37:42.508Z,19.10
2019-06-08T08:38:50.212Z,19.10
2019-06-08T08:39:58.559Z,19.10
2019-06-08T08:41:07.558Z,19.10
2019-06-08T08:42:10.875Z,19.10
2019-06-08T08:43:17.867Z,19.10
2019-06-08T08:44:23.083Z,19.20
2019-06-08T08:45:29.102Z,19.20
2019-06-08T08:46:34.676Z,19.20
2019-06-08T08:47:42.348Z,19.20
2019-06-08T08:48:48.628Z,19.20
2019-06-08T08:49:56.053Z,19.30
2019-06-08T08:51:03.638Z,19.30
2019-06-08T08:52:11.637Z,19.20
2019-06-08T08:53:18.171Z,19.20
2019-06-08T08:54:24.980Z,19.20
2019-06-08T08:55:30.969Z,19.30
2019-06-08T08:56:38.339Z,19.30
2019-06-08T08:57:44.147Z,19.30
2019-06-08T08:58:51.479Z,19.20
2019-06-08T09:00:01.716Z,19.30
2019-06-08T09:01:05.052Z,19.20
2019-06-08T09:02:11.506Z,19.20
2019-06-08T09:03:29.059Z,19.20
2019-06-08T09:04:24.459Z,19.30
2019-06-08T09:05:30.734Z,19.30
2019-06-08T09:06:38.123Z,19.30
2019-06-08T09:07:43.987Z,19.20
2019-06-08T09:08:52.009Z,19.20
2019-06-08T09:10:00.456Z,19.30
2019-06-08T09:11:05.038Z,19.30
2019-06-08T09:12:11.331Z,19.30
2019-06-08T09:13:18.646Z,19.30
2019-06-08T09:14:24.228Z,19.30
2019-06-08T09:15:31.485Z,19.30
2019-06-08T09:16:38.397Z,19.30
2019-06-08T09:17:43.699Z,19.40
2019-06-08T09:18:49.758Z,19.40
2019-06-08T09:19:58.412Z,19.40
2019-06-08T09:21:04.305Z,19.30
2019-06-08T09:22:09.675Z,19.40
2019-06-08T09:23:19.355Z,19.40
2019-06-08T09:24:23.285Z,19.40
2019-06-08T09:25:29.595Z,19.40
2019-06-08T09:26:38.044Z,19.40
2019-06-08T09:27:43.409Z,19.40
2019-06-08T09:28:48.509Z,19.40
2019-06-08T09:29:54.972Z,19.40
2019-06-08T09:31:03.659Z,19.40
2019-06-08T09:32:10.774Z,19.40
2019-06-08T09:33:18.562Z,19.40
2019-06-08T09:34:23.629Z,19.40
2019-06-08T09:35:28.901Z,19.40
2019-06-08T09:36:37.555Z,19.40
2019-06-08T09:37:43.126Z,19.40
2019-06-08T09:38:49.456Z,19.40
2019-06-08T09:39:55.931Z,19.40
2019-06-08T09:41:05.145Z,19.40
2019-06-08T09:42:10.030Z,19.40
2019-06-08T09:43:18.688Z,19.40
2019-06-08T09:44:23.290Z,19.40
2019-06-08T09:45:29.588Z,19.40
2019-06-08T09:46:35.468Z,19.40
2019-06-08T09:47:41.771Z,19.40
2019-06-08T09:48:48.678Z,19.50
2019-06-08T09:49:58.774Z,19.40
2019-06-08T09:51:05.460Z,19.50
2019-06-08T09:52:10.788Z,19.50
2019-06-08T09:53:26.740Z,19.50
2019-06-08T09:54:24.089Z,19.50
2019-06-08T09:55:29.281Z,19.50
2019-06-08T09:56:37.801Z,19.50
2019-06-08T09:57:42.593Z,19.50
2019-06-08T09:58:51.389Z,19.60
2019-06-08T09:59:57.161Z,19.60
2019-06-08T10:01:06.005Z,19.60
2019-06-08T10:02:12.918Z,19.70
2019-06-08T10:03:18.910Z,19.70
2019-06-08T10:04:25.642Z,19.80
2019-06-08T10:05:32.281Z,19.80
2019-06-08T10:06:40.519Z,19.90
2019-06-08T10:07:48.544Z,19.90
2019-06-08T10:08:54.195Z,20.00
2019-06-08T10:10:02.766Z,20.00
2019-06-08T10:11:09.644Z,20.10
2019-06-08T10:12:18.063Z,20.10
2019-06-08T10:13:22.577Z,20.20
2019-06-08T10:14:29.202Z,20.20
2019-06-08T10:15:35.067Z,20.30
2019-06-08T10:16:41.035Z,20.30
2019-06-08T10:17:47.620Z,20.30
2019-06-08T10:18:54.973Z,20.30
2019-06-08T10:20:02.647Z,20.40
2019-06-08T10:21:09.683Z,20.40
2019-06-08T10:22:18.023Z,20.50
2019-06-08T10:23:30.707Z,20.50
2019-06-08T10:24:30.693Z,20.50
2019-06-08T10:25:38.513Z,20.50
2019-06-08T10:26:44.468Z,20.60
2019-06-08T10:27:50.485Z,20.60
2019-06-08T10:28:58.716Z,20.60
2019-06-08T10:30:05.843Z,20.60
2019-06-08T10:31:11.101Z,20.70
2019-06-08T10:32:19.174Z,20.70
2019-06-08T10:33:24.670Z,20.80
2019-06-08T10:34:30.595Z,20.80
2019-06-08T10:35:38.107Z,20.80
2019-06-08T10:36:43.513Z,20.90
2019-06-08T10:37:50.870Z,20.90
2019-06-08T10:38:59.393Z,21.00
2019-06-08T10:40:05.487Z,21.00
2019-06-08T10:41:17.759Z,21.00
2019-06-08T10:42:18.392Z,21.10
2019-06-08T10:43:24.813Z,21.10
2019-06-08T10:44:30.310Z,21.20
2019-06-08T10:45:36.287Z,21.30
2019-06-08T10:46:41.829Z,21.30
2019-06-08T10:47:48.374Z,21.40
2019-06-08T10:48:53.845Z,21.40
2019-06-08T10:50:05.448Z,21.50
2019-06-08T10:51:10.384Z,21.50
2019-06-08T10:52:14.518Z,21.60
2019-06-08T10:53:19.679Z,21.70
2019-06-08T10:54:27.723Z,21.70
2019-06-08T10:55:33.220Z,21.70
2019-06-08T10:56:39.542Z,21.80
2019-06-08T10:57:47.598Z,21.80
2019-06-08T10:58:52.506Z,21.90
2019-06-08T10:59:59.745Z,21.90
2019-06-08T11:01:10.690Z,21.90
2019-06-08T11:02:14.701Z,22.00
2019-06-08T11:03:20.857Z,22.00
2019-06-08T11:04:28.501Z,22.00
2019-06-08T11:05:33.939Z,22.00
2019-06-08T11:06:40.241Z,22.00
2019-06-08T11:07:48.030Z,22.00
2019-06-08T11:08:53.377Z,22.00
2019-06-08T11:10:00.207Z,22.00
2019-06-08T11:11:11.335Z,22.00
2019-06-08T11:12:15.287Z,22.10
2019-06-08T11:13:21.367Z,22.10
2019-06-08T11:14:27.764Z,22.10
2019-06-08T11:15:33.046Z,22.10
2019-06-08T11:16:39.045Z,22.20
2019-06-08T11:17:44.310Z,22.20
2019-06-08T11:18:51.286Z,22.20
2019-06-08T11:19:59.418Z,22.20
2019-06-08T11:21:06.323Z,22.20
2019-06-08T11:22:14.262Z,22.30
2019-06-08T11:23:19.616Z,22.30
2019-06-08T11:24:25.497Z,22.30
2019-06-08T11:25:31.561Z,22.30
2019-06-08T11:26:39.943Z,22.40
2019-06-08T11:27:47.395Z,22.30
2019-06-08T11:28:51.690Z,22.30
2019-06-08T11:29:57.714Z,22.30
2019-06-08T11:31:03.952Z,22.30
2019-06-08T11:32:12.304Z,22.30
2019-06-08T11:33:17.720Z,22.30
2019-06-08T11:34:23.648Z,22.30
2019-06-08T11:35:29.157Z,22.30
2019-06-08T11:36:35.048Z,22.20
2019-06-08T11:37:41.232Z,22.20
2019-06-08T11:38:47.785Z,22.20
2019-06-08T11:39:53.431Z,22.20
2019-06-08T11:41:00.975Z,22.20
2019-06-08T11:42:10.647Z,22.30
2019-06-08T11:43:15.277Z,22.30
2019-06-08T11:44:20.503Z,22.30
2019-06-08T11:45:26.982Z,22.30
2019-06-08T11:46:32.610Z,22.40
2019-06-08T11:47:39.214Z,22.40
2019-06-08T11:48:44.877Z,22.50
2019-06-08T11:49:51.324Z,22.60
2019-06-08T11:50:58.498Z,22.60
2019-06-08T11:52:04.584Z,22.70
2019-06-08T11:53:14.403Z,22.70
2019-06-08T11:54:32.259Z,22.70
2019-06-08T11:55:28.002Z,22.80
2019-06-08T11:56:34.269Z,22.80
2019-06-08T11:57:40.515Z,22.90
2019-06-08T11:58:48.588Z,22.90
2019-06-08T11:59:55.430Z,22.90
2019-06-08T12:01:11.616Z,23.00
2019-06-08T12:02:14.565Z,23.00
2019-06-08T12:03:20.794Z,23.00
2019-06-08T12:04:28.344Z,23.00
2019-06-08T12:05:34.412Z,23.00
2019-06-08T12:06:39.902Z,23.00
2019-06-08T12:07:48.029Z,23.00
2019-06-08T12:08:54.174Z,23.10
2019-06-08T12:09:59.965Z,23.00
2019-06-08T12:11:06.465Z,23.00
2019-06-08T12:12:17.554Z,23.10
2019-06-08T12:13:20.287Z,23.10
2019-06-08T12:14:26.349Z,23.10
2019-06-08T12:15:31.811Z,23.00
2019-06-08T12:16:37.971Z,23.00
2019-06-08T12:17:43.382Z,23.10
2019-06-08T12:18:49.508Z,23.00
2019-06-08T12:19:55.033Z,23.10
2019-06-08T12:21:01.515Z,23.10
2019-06-08T12:22:09.662Z,23.10
2019-06-08T12:23:15.078Z,23.10
2019-06-08T12:24:20.722Z,23.00
2019-06-08T12:25:26.733Z,23.00
2019-06-08T12:26:31.855Z,23.10
2019-06-08T12:27:40.148Z,23.10
2019-06-08T12:28:44.983Z,23.00
2019-06-08T12:29:51.623Z,23.00
2019-06-08T12:30:57.096Z,23.10
2019-06-08T12:32:04.490Z,23.00
2019-06-08T12:33:12.413Z,23.00
2019-06-08T12:34:18.610Z,23.00
2019-06-08T12:35:24.198Z,23.00
2019-06-08T12:36:30.784Z,23.00
2019-06-08T12:37:38.562Z,23.00
2019-06-08T12:38:44.256Z,23.00
2019-06-08T12:39:49.307Z,22.90
2019-06-08T12:40:55.624Z,22.90
2019-06-08T12:42:01.278Z,22.90
2019-06-08T12:43:09.637Z,22.90
2019-06-08T12:44:16.550Z,22.80
2019-06-08T12:45:22.585Z,22.80
2019-06-08T12:46:28.202Z,22.80
2019-06-08T12:47:34.161Z,22.80
2019-06-08T12:48:39.521Z,22.80
2019-06-08T12:49:48.290Z,22.80
2019-06-08T12:50:53.227Z,22.80
2019-06-08T12:51:59.242Z,22.80
2019-06-08T12:53:04.499Z,22.80
2019-06-08T12:54:11.467Z,22.80
2019-06-08T12:55:23.222Z,22.80
2019-06-08T12:56:25.975Z,22.90
2019-06-08T12:57:31.722Z,22.80
2019-06-08T12:58:38.671Z,22.90
2019-06-08T12:59:45.499Z,22.90
2019-06-08T13:00:52.788Z,22.90
2019-06-08T13:01:58.656Z,22.90
2019-06-08T13:03:05.083Z,22.90
2019-06-08T13:04:11.448Z,22.90
2019-06-08T13:05:21.569Z,22.90
2019-06-08T13:06:24.862Z,22.90
2019-06-08T13:07:31.212Z,22.90
2019-06-08T13:08:37.713Z,22.90
2019-06-08T13:09:44.061Z,22.90
2019-06-08T13:10:49.567Z,23.00
2019-06-08T13:11:57.046Z,23.00
2019-06-08T13:13:03.112Z,23.00
2019-06-08T13:14:10.282Z,23.10
2019-06-08T13:15:19.532Z,23.10
2019-06-08T13:16:24.703Z,23.10
2019-06-08T13:17:30.206Z,23.20
2019-06-08T13:18:40.411Z,23.20
2019-06-08T13:19:43.271Z,23.20
2019-06-08T13:20:51.776Z,23.20
2019-06-08T13:21:58.309Z,23.30
2019-06-08T13:23:04.955Z,23.30
2019-06-08T13:24:11.286Z,23.30
2019-06-08T13:25:34.186Z,23.40
2019-06-08T13:26:28.461Z,23.40
2019-06-08T13:27:32.923Z,23.40
2019-06-08T13:28:38.567Z,23.40
2019-06-08T13:29:44.851Z,23.40
2019-06-08T13:30:50.312Z,23.40
2019-06-08T13:31:58.604Z,23.40
2019-06-08T13:33:03.473Z,23.40
2019-06-08T13:34:11.135Z,23.40
2019-06-08T13:35:19.141Z,23.40
2019-06-08T13:36:27.169Z,23.40
2019-06-08T13:37:31.578Z,23.40
2019-06-08T13:38:38.039Z,23.40
2019-06-08T13:39:43.679Z,23.50
2019-06-08T13:40:50.052Z,23.50
2019-06-08T13:41:55.634Z,23.50
2019-06-08T13:43:01.616Z,23.60
2019-06-08T13:44:08.229Z,23.60
2019-06-08T13:45:16.259Z,23.60
2019-06-08T13:46:23.694Z,23.60
2019-06-08T13:47:29.798Z,23.60
2019-06-08T13:48:34.974Z,23.70
2019-06-08T13:49:40.946Z,23.70
2019-06-08T13:50:47.425Z,23.70
2019-06-08T13:51:54.313Z,23.60
2019-06-08T13:53:00.855Z,23.60
2019-06-08T13:54:08.476Z,23.60
2019-06-08T13:55:34.043Z,23.60
2019-06-08T13:56:23.892Z,23.60
2019-06-08T13:57:30.135Z,23.60
2019-06-08T13:58:38.216Z,23.60
2019-06-08T13:59:43.571Z,23.60
2019-06-08T14:00:50.327Z,23.70
2019-06-08T14:01:57.923Z,23.70
2019-06-08T14:03:04.911Z,23.70
2019-06-08T14:04:10.207Z,23.70
2019-06-08T14:05:24.042Z,23.80
2019-06-08T14:06:28.480Z,23.80
2019-06-08T14:07:34.954Z,23.80
2019-06-08T14:08:40.310Z,23.80
2019-06-08T14:09:47.924Z,23.80
2019-06-08T14:10:53.613Z,23.80
2019-06-08T14:12:00.073Z,23.80
2019-06-08T14:13:05.958Z,23.80
2019-06-08T14:14:12.374Z,23.80
2019-06-08T14:15:17.701Z,23.80